»·PEaware :: UAL2360 KPSP-KTUS

UAL2360 :: KPSP-KTUS

FLIGHT INFORMATION

Flight Status: Arrived
Operator:
United Airlines
More flights by this operator :: More flights under this callsign
Pilot: Sergei F. (8485)
Aircraft: BOEING 737-700
(B737)
More flights by this aircraft type
Origin: KPSP Palm Springs Intl
United States
Destination: KTUS Tucson Intl
United States
More flights between these airports :: More routes between these airports
Route: CATH1 PSP BLH J50 GBN DINGO5
File this flight plan on PilotEdge
Remarks: RMK / SIMBRIEF
Altitude:
(Current/Filed)
37,000ft
Speed:
(Current/Filed)
444kts
Departed: 24-Aug-23 07:24 AM
Arrived: 24-Aug-23 08:19 AM
Distance/Time
Traveled:
298nm/0:55
Distance/Time
To Go:
Arrived

Flight Plot

Page will automatically refresh every two minutes.

Flight plan parsing failed; only flown route is shown


Map Options




Map Legend


Flown Route
Filed Route
Departure Airport
Arrival Airport
Navaid (VOR, NDB)
Fix

Horizontal Profiles

Position Reports

Time Latitude Longitude Heading Altitude Ground
Speed
24-Aug-23 05:58 33.821469 -116.506555 260 420ft 0kts
24-Aug-23 05:59 33.821469 -116.506555 260 420ft 0kts
24-Aug-23 06:00 33.821469 -116.506555 260 420ft 0kts
24-Aug-23 06:01 33.821469 -116.506555 260 420ft 0kts
24-Aug-23 06:02 33.821469 -116.506555 260 420ft 0kts
24-Aug-23 06:03 33.821469 -116.506555 260 420ft 0kts
24-Aug-23 06:04 33.821469 -116.506555 260 420ft 0kts
24-Aug-23 06:05 33.821469 -116.506555 260 420ft 0kts
24-Aug-23 06:06 33.821469 -116.506555 260 420ft 0kts
24-Aug-23 06:07 33.821469 -116.506555 260 420ft 0kts
24-Aug-23 06:08 33.821469 -116.506555 260 420ft 0kts
24-Aug-23 06:09 33.821469 -116.506555 260 420ft 0kts
24-Aug-23 06:10 33.821469 -116.506555 260 420ft 0kts
24-Aug-23 06:11 33.821469 -116.506555 260 420ft 0kts
24-Aug-23 06:12 33.821469 -116.506555 260 420ft 0kts
24-Aug-23 06:13 33.821469 -116.506555 260 420ft 0kts
24-Aug-23 06:14 33.821469 -116.506555 260 420ft 0kts
24-Aug-23 06:15 33.821469 -116.506555 260 420ft 0kts
24-Aug-23 06:16 33.821469 -116.506555 260 420ft 0kts
24-Aug-23 06:17 33.821469 -116.506555 260 420ft 0kts
24-Aug-23 06:18 33.821469 -116.506555 260 420ft 0kts
24-Aug-23 06:19 33.821469 -116.506555 260 420ft 0kts
24-Aug-23 06:20 33.821469 -116.506555 260 420ft 0kts
24-Aug-23 06:21 33.821469 -116.506555 260 420ft 0kts
24-Aug-23 06:22 33.821469 -116.506555 260 420ft 0kts
24-Aug-23 06:23 33.821469 -116.506555 260 402ft 0kts
24-Aug-23 06:24 33.821469 -116.506555 260 402ft 0kts
24-Aug-23 06:25 33.821469 -116.506555 260 402ft 0kts
24-Aug-23 06:26 33.821469 -116.506555 260 402ft 0kts
24-Aug-23 06:27 33.821469 -116.506555 260 402ft 0kts
24-Aug-23 06:28 33.821469 -116.506555 260 402ft 0kts
24-Aug-23 06:29 33.821469 -116.506555 260 402ft 0kts
24-Aug-23 06:30 33.821469 -116.506555 260 402ft 0kts
24-Aug-23 06:31 33.821469 -116.506555 260 402ft 0kts
24-Aug-23 06:32 33.821469 -116.506555 260 402ft 0kts
24-Aug-23 06:33 33.821469 -116.506555 260 402ft 0kts
24-Aug-23 06:34 33.821469 -116.506555 260 402ft 0kts
24-Aug-23 06:35 33.821469 -116.506555 260 402ft 0kts
24-Aug-23 06:36 33.821469 -116.506555 260 402ft 0kts
24-Aug-23 06:37 33.821469 -116.506555 260 402ft 0kts
24-Aug-23 06:38 33.821469 -116.506555 260 420ft 0kts
24-Aug-23 06:39 33.821469 -116.506555 260 420ft 0kts
24-Aug-23 06:40 33.821469 -116.506555 260 420ft 0kts
24-Aug-23 06:41 33.821469 -116.506555 260 420ft 0kts
24-Aug-23 06:42 33.821469 -116.506555 260 420ft 0kts
24-Aug-23 06:43 33.821469 -116.506555 260 420ft 0kts
24-Aug-23 06:44 33.821469 -116.506555 260 420ft 0kts
24-Aug-23 06:45 33.821469 -116.506555 260 420ft 0kts
24-Aug-23 06:46 33.821469 -116.506555 260 420ft 0kts
24-Aug-23 06:47 33.821469 -116.506555 260 420ft 0kts
24-Aug-23 06:48 33.821469 -116.506555 260 420ft 0kts
24-Aug-23 06:49 33.821469 -116.506555 260 420ft 0kts
24-Aug-23 06:50 33.821469 -116.506555 260 420ft 0kts
24-Aug-23 06:51 33.821469 -116.506555 260 420ft 0kts
24-Aug-23 06:52 33.821469 -116.506555 260 420ft 0kts
24-Aug-23 06:53 33.821469 -116.506555 260 420ft 0kts
24-Aug-23 06:54 33.821469 -116.506555 260 420ft 0kts
24-Aug-23 06:55 33.821469 -116.506555 260 420ft 0kts
24-Aug-23 06:56 33.821469 -116.506555 260 420ft 0kts
24-Aug-23 06:57 33.821469 -116.506555 260 420ft 0kts
24-Aug-23 06:58 33.821469 -116.506555 260 420ft 0kts
24-Aug-23 06:59 33.821469 -116.506555 260 420ft 0kts
24-Aug-23 07:00 33.821469 -116.506555 260 420ft 0kts
24-Aug-23 07:01 33.821469 -116.506555 260 420ft 0kts
24-Aug-23 07:02 33.821469 -116.506555 260 420ft 0kts
24-Aug-23 07:03 33.821469 -116.506555 260 420ft 0kts
24-Aug-23 07:04 33.821469 -116.506555 260 420ft 0kts
24-Aug-23 07:05 33.821469 -116.506555 260 420ft 0kts
24-Aug-23 07:06 33.821470 -116.506549 260 420ft 0kts
24-Aug-23 07:08 33.821526 -116.506175 260 418ft 2kts
24-Aug-23 07:09 33.821674 -116.505760 219 403ft 2kts
24-Aug-23 07:10 33.821802 -116.505699 179 410ft 0kts
24-Aug-23 07:11 33.821802 -116.505699 179 410ft 0kts
24-Aug-23 07:12 33.821802 -116.505699 179 410ft 0kts
24-Aug-23 07:13 33.821802 -116.505699 179 410ft 0kts
24-Aug-23 07:14 33.821802 -116.505699 179 410ft 0kts
24-Aug-23 07:15 33.821802 -116.505699 179 410ft 0kts
24-Aug-23 07:16 33.821802 -116.505699 179 410ft 0kts
24-Aug-23 07:17 33.821558 -116.505700 180 414ft 5kts
24-Aug-23 07:18 33.819727 -116.505617 129 411ft 3kts
24-Aug-23 07:19 33.819662 -116.503551 89 413ft 10kts
24-Aug-23 07:20 33.819255 -116.500441 142 408ft 9kts
24-Aug-23 07:21 33.818522 -116.499062 89 404ft 0kts
24-Aug-23 07:22 33.818522 -116.499062 89 404ft 0kts
24-Aug-23 07:23 33.818811 -116.498098 2 404ft 6kts
24-Aug-23 07:24 33.833582 -116.511222 323 718ft 173kts
24-Aug-23 07:25 33.872785 -116.547572 321 3671ft 218kts
24-Aug-23 07:26 33.928234 -116.567649 38 6763ft 231kts
24-Aug-23 07:27 33.924279 -116.502652 133 10027ft 226kts
24-Aug-23 07:28 33.880898 -116.444451 133 12772ft 239kts
24-Aug-23 07:29 33.848546 -116.372074 103 15440ft 259kts
24-Aug-23 07:30 33.834473 -116.270129 101 16443ft 358kts
24-Aug-23 07:31 33.816589 -116.148030 101 19047ft 379kts
24-Aug-23 07:32 33.797047 -116.020259 101 21486ft 396kts
24-Aug-23 07:33 33.776468 -115.887279 100 23714ft 412kts
24-Aug-23 07:34 33.755057 -115.749995 101 25559ft 424kts
24-Aug-23 07:35 33.732805 -115.608429 101 27274ft 438kts
24-Aug-23 07:36 33.709735 -115.462800 101 28864ft 450kts
24-Aug-23 07:36 33.689880 -115.338359 101 30054ft 460kts
24-Aug-23 07:38 33.661315 -115.160801 101 31501ft 469kts
24-Aug-23 07:39 33.636354 -115.008189 101 33207ft 466kts
24-Aug-23 07:40 33.611684 -114.856144 101 34805ft 463kts
24-Aug-23 07:40 33.591995 -114.729970 97 35947ft 460kts
24-Aug-23 07:41 33.579218 -114.576013 95 36922ft 465kts
24-Aug-23 07:42 33.565836 -114.422725 96 36913ft 457kts
24-Aug-23 07:44 33.549594 -114.245715 96 36908ft 458kts
24-Aug-23 07:44 33.537860 -114.119152 96 36911ft 459kts
24-Aug-23 07:45 33.523597 -113.967145 96 36922ft 461kts
24-Aug-23 07:46 33.509037 -113.814122 96 36926ft 463kts
24-Aug-23 07:47 33.494193 -113.660263 96 36928ft 463kts
24-Aug-23 07:49 33.476880 -113.483102 96 36930ft 458kts
24-Aug-23 07:49 33.458974 -113.358066 113 36924ft 458kts
24-Aug-23 07:50 33.385476 -113.244114 133 35681ft 434kts
24-Aug-23 07:51 33.304861 -113.136706 132 33718ft 430kts
24-Aug-23 07:52 33.221742 -113.025866 132 30560ft 436kts
24-Aug-23 07:53 33.144632 -112.923373 132 28684ft 402kts
24-Aug-23 07:54 33.071072 -112.825916 133 26902ft 389kts
24-Aug-23 07:55 32.999636 -112.731487 133 25148ft 379kts
24-Aug-23 07:56 32.938668 -112.631946 114 23572ft 368kts
24-Aug-23 07:57 32.897804 -112.522599 115 22354ft 356kts
24-Aug-23 07:58 32.856951 -112.416182 115 21264ft 357kts
24-Aug-23 07:59 32.815343 -112.308536 115 20147ft 355kts
24-Aug-23 08:00 32.774389 -112.202935 115 19059ft 346kts
24-Aug-23 08:01 32.734940 -112.101505 115 17946ft 335kts
24-Aug-23 08:02 32.695970 -112.001606 115 16798ft 327kts
24-Aug-23 08:03 32.658120 -111.904857 115 15790ft 320kts
24-Aug-23 08:04 32.620811 -111.809751 115 14812ft 318kts
24-Aug-23 08:05 32.583347 -111.714493 115 13811ft 318kts
24-Aug-23 08:06 32.545241 -111.621044 124 12796ft 308kts
24-Aug-23 08:07 32.494215 -111.540040 116 11858ft 309kts
24-Aug-23 08:08 32.469744 -111.442991 106 10772ft 300kts
24-Aug-23 08:09 32.446256 -111.350209 106 9676ft 285kts
24-Aug-23 08:10 32.403261 -111.276324 135 8636ft 279kts
24-Aug-23 08:11 32.348079 -111.211556 135 7586ft 273kts
24-Aug-23 08:12 32.298089 -111.152933 135 7008ft 224kts
24-Aug-23 08:13 32.263987 -111.112921 135 6398ft 198kts
24-Aug-23 08:14 32.225988 -111.068332 134 5388ft 187kts
24-Aug-23 08:15 32.192143 -111.028564 134 4558ft 144kts
24-Aug-23 08:16 32.164661 -110.996311 135 3840ft 139kts
24-Aug-23 08:17 32.137480 -110.964565 135 3038ft 136kts
24-Aug-23 08:18 32.114664 -110.937703 135 2608ft 27kts
24-Aug-23 08:19 32.114997 -110.936261 44 2610ft 2kts
24-Aug-23 08:20 32.115080 -110.936165 42 2609ft 1kts
24-Aug-23 08:21 32.116404 -110.937279 314 2605ft 11kts
24-Aug-23 08:22 32.117877 -110.937809 353 2602ft 3kts
24-Aug-23 08:23 32.118686 -110.938015 55 2600ft 1kts
24-Aug-23 08:24 32.118867 -110.937686 59 2600ft 1kts
24-Aug-23 08:25 32.118878 -110.937663 59 2600ft 0kts
24-Aug-23 08:26 32.118878 -110.937663 59 2600ft 0kts
24-Aug-23 08:27 32.118878 -110.937663 59 2600ft 0kts
24-Aug-23 08:28 32.118878 -110.937663 59 2600ft 0kts
24-Aug-23 08:29 32.118878 -110.937663 59 2600ft 0kts

Navigation Log

Ident Type
Flight plan parsing failed, navigation log unavailable